sensor_id;sensor_type;location;lat;lon;timestamp;temperature;humidity
65034;DHT22;51601;51.356;12.458;2023-07-28T00:01:07;17.40;99.90
65034;DHT22;51601;51.356;12.458;2023-07-28T00:05:27;17.30;99.90
65034;DHT22;51601;51.356;12.458;2023-07-28T00:09:46;17.30;99.90
65034;DHT22;51601;51.356;12.458;2023-07-28T00:14:05;17.30;99.90
65034;DHT22;51601;51.356;12.458;2023-07-28T00:18:23;17.30;99.90
65034;DHT22;51601;51.356;12.458;2023-07-28T00:27:51;17.30;99.90
65034;DHT22;51601;51.356;12.458;2023-07-28T00:32:09;17.40;99.90
65034;DHT22;51601;51.356;12.458;2023-07-28T00:36:27;17.40;99.90
65034;DHT22;51601;51.356;12.458;2023-07-28T00:40:45;17.40;99.90
65034;DHT22;51601;51.356;12.458;2023-07-28T00:45:06;17.40;99.90
65034;DHT22;51601;51.356;12.458;2023-07-28T00:49:24;17.50;99.90
65034;DHT22;51601;51.356;12.458;2023-07-28T00:53:43;17.50;99.90
65034;DHT22;51601;51.356;12.458;2023-07-28T00:58:01;17.50;99.90
65034;DHT22;51601;51.356;12.458;2023-07-28T01:02:21;17.50;99.90
65034;DHT22;51601;51.356;12.458;2023-07-28T01:06:49;17.50;99.90
65034;DHT22;51601;51.356;12.458;2023-07-28T01:11:10;17.50;99.90
65034;DHT22;51601;51.356;12.458;2023-07-28T01:15:28;17.50;99.90
65034;DHT22;51601;51.356;12.458;2023-07-28T01:19:47;17.50;99.90
65034;DHT22;51601;51.356;12.458;2023-07-28T01:24:11;17.50;99.90
65034;DHT22;51601;51.356;12.458;2023-07-28T01:28:35;17.60;99.90
65034;DHT22;51601;51.356;12.458;2023-07-28T01:32:54;17.60;99.90
65034;DHT22;51601;51.356;12.458;2023-07-28T01:37:14;17.60;99.90
65034;DHT22;51601;51.356;12.458;2023-07-28T01:41:32;17.70;99.90
65034;DHT22;51601;51.356;12.458;2023-07-28T01:45:51;17.70;99.90
65034;DHT22;51601;51.356;12.458;2023-07-28T01:50:08;17.70;99.90
65034;DHT22;51601;51.356;12.458;2023-07-28T01:54:26;17.70;99.90
65034;DHT22;51601;51.356;12.458;2023-07-28T01:58:44;17.70;99.90
65034;DHT22;51601;51.356;12.458;2023-07-28T02:03:03;17.70;99.90
65034;DHT22;51601;51.356;12.458;2023-07-28T02:07:20;17.70;99.90
65034;DHT22;51601;51.356;12.458;2023-07-28T02:11:38;17.70;99.90
65034;DHT22;51601;51.356;12.458;2023-07-28T02:15:56;17.80;99.90
65034;DHT22;51601;51.356;12.458;2023-07-28T02:20:16;17.80;99.90
65034;DHT22;51601;51.356;12.458;2023-07-28T02:24:32;17.80;99.90
65034;DHT22;51601;51.356;12.458;2023-07-28T02:28:50;17.80;99.90
65034;DHT22;51601;51.356;12.458;2023-07-28T02:33:08;17.80;99.90
65034;DHT22;51601;51.356;12.458;2023-07-28T02:37:28;17.80;99.90
65034;DHT22;51601;51.356;12.458;2023-07-28T02:41:44;17.80;99.90
65034;DHT22;51601;51.356;12.458;2023-07-28T02:46:02;17.80;99.90
65034;DHT22;51601;51.356;12.458;2023-07-28T02:50:20;17.80;99.90
65034;DHT22;51601;51.356;12.458;2023-07-28T02:54:40;17.80;99.90
65034;DHT22;51601;51.356;12.458;2023-07-28T02:58:57;17.80;99.90
65034;DHT22;51601;51.356;12.458;2023-07-28T03:03:15;17.80;99.90
65034;DHT22;51601;51.356;12.458;2023-07-28T03:07:33;17.80;99.90
65034;DHT22;51601;51.356;12.458;2023-07-28T03:11:55;17.90;99.90
65034;DHT22;51601;51.356;12.458;2023-07-28T03:16:15;17.90;99.90
65034;DHT22;51601;51.356;12.458;2023-07-28T03:20:33;17.90;99.90
65034;DHT22;51601;51.356;12.458;2023-07-28T03:24:51;17.90;99.90
65034;DHT22;51601;51.356;12.458;2023-07-28T03:29:10;17.90;99.90
65034;DHT22;51601;51.356;12.458;2023-07-28T03:33:27;18.00;99.90
65034;DHT22;51601;51.356;12.458;2023-07-28T03:37:45;18.00;99.90
65034;DHT22;51601;51.356;12.458;2023-07-28T03:42:04;18.00;99.90
65034;DHT22;51601;51.356;12.458;2023-07-28T03:46:23;17.90;99.90
65034;DHT22;51601;51.356;12.458;2023-07-28T03:50:42;17.90;99.90
65034;DHT22;51601;51.356;12.458;2023-07-28T03:55:01;18.00;99.90
65034;DHT22;51601;51.356;12.458;2023-07-28T03:59:19;18.00;99.90
65034;DHT22;51601;51.356;12.458;2023-07-28T04:03:38;17.90;99.90
65034;DHT22;51601;51.356;12.458;2023-07-28T04:07:58;18.00;99.90
65034;DHT22;51601;51.356;12.458;2023-07-28T04:12:16;18.00;99.90
65034;DHT22;51601;51.356;12.458;2023-07-28T04:16:34;18.00;99.90
65034;DHT22;51601;51.356;12.458;2023-07-28T04:20:53;18.00;99.90
65034;DHT22;51601;51.356;12.458;2023-07-28T04:25:13;18.00;99.90
65034;DHT22;51601;51.356;12.458;2023-07-28T04:29:34;18.00;99.90
65034;DHT22;51601;51.356;12.458;2023-07-28T04:33:55;18.00;99.90
65034;DHT22;51601;51.356;12.458;2023-07-28T04:38:21;18.00;99.90
65034;DHT22;51601;51.356;12.458;2023-07-28T04:42:44;18.00;99.90
65034;DHT22;51601;51.356;12.458;2023-07-28T04:47:02;18.00;99.90
65034;DHT22;51601;51.356;12.458;2023-07-28T04:51:20;18.00;99.90
65034;DHT22;51601;51.356;12.458;2023-07-28T04:56:01;18.00;99.90
65034;DHT22;51601;51.356;12.458;2023-07-28T05:00:21;17.90;99.90
65034;DHT22;51601;51.356;12.458;2023-07-28T05:04:38;17.90;99.90
65034;DHT22;51601;51.356;12.458;2023-07-28T05:08:57;18.00;99.90
65034;DHT22;51601;51.356;12.458;2023-07-28T05:13:22;18.10;99.90
65034;DHT22;51601;51.356;12.458;2023-07-28T05:17:45;18.20;99.90
65034;DHT22;51601;51.356;12.458;2023-07-28T05:22:22;18.30;99.90
65034;DHT22;51601;51.356;12.458;2023-07-28T05:26:43;18.30;99.90
65034;DHT22;51601;51.356;12.458;2023-07-28T05:31:05;18.30;99.90
65034;DHT22;51601;51.356;12.458;2023-07-28T05:35:25;18.30;99.90
65034;DHT22;51601;51.356;12.458;2023-07-28T05:39:43;18.40;99.90
65034;DHT22;51601;51.356;12.458;2023-07-28T05:44:01;18.40;99.90
65034;DHT22;51601;51.356;12.458;2023-07-28T05:48:20;18.40;99.90
65034;DHT22;51601;51.356;12.458;2023-07-28T05:52:37;18.50;99.90
65034;DHT22;51601;51.356;12.458;2023-07-28T05:56:55;18.50;99.90
65034;DHT22;51601;51.356;12.458;2023-07-28T06:01:13;18.60;99.90
65034;DHT22;51601;51.356;12.458;2023-07-28T06:05:57;18.70;99.90
65034;DHT22;51601;51.356;12.458;2023-07-28T06:10:14;18.70;99.90
65034;DHT22;51601;51.356;12.458;2023-07-28T06:14:32;18.70;99.90
65034;DHT22;51601;51.356;12.458;2023-07-28T06:18:50;18.80;99.90
65034;DHT22;51601;51.356;12.458;2023-07-28T06:23:12;18.80;99.90
65034;DHT22;51601;51.356;12.458;2023-07-28T06:27:29;18.90;99.90
65034;DHT22;51601;51.356;12.458;2023-07-28T06:31:47;19.00;99.90
65034;DHT22;51601;51.356;12.458;2023-07-28T06:36:05;19.10;99.90
65034;DHT22;51601;51.356;12.458;2023-07-28T06:40:25;19.20;99.90
65034;DHT22;51601;51.356;12.458;2023-07-28T06:44:41;19.40;99.90
65034;DHT22;51601;51.356;12.458;2023-07-28T06:48:59;19.70;99.90
65034;DHT22;51601;51.356;12.458;2023-07-28T06:53:17;19.90;99.90
65034;DHT22;51601;51.356;12.458;2023-07-28T06:57:37;20.20;99.90
65034;DHT22;51601;51.356;12.458;2023-07-28T07:01:57;20.50;99.90
65034;DHT22;51601;51.356;12.458;2023-07-28T07:06:15;20.60;99.90
65034;DHT22;51601;51.356;12.458;2023-07-28T07:10:33;20.60;99.90
65034;DHT22;51601;51.356;12.458;2023-07-28T07:14:52;20.60;99.90
65034;DHT22;51601;51.356;12.458;2023-07-28T07:19:12;20.60;99.90
65034;DHT22;51601;51.356;12.458;2023-07-28T07:23:33;20.90;99.90
65034;DHT22;51601;51.356;12.458;2023-07-28T07:27:51;21.50;99.90
65034;DHT22;51601;51.356;12.458;2023-07-28T07:32:11;22.60;99.90
65034;DHT22;51601;51.356;12.458;2023-07-28T07:36:27;23.80;99.90
65034;DHT22;51601;51.356;12.458;2023-07-28T07:40:46;24.50;99.90
65034;DHT22;51601;51.356;12.458;2023-07-28T07:45:04;24.60;99.90
65034;DHT22;51601;51.356;12.458;2023-07-28T07:49:23;24.60;95.90
65034;DHT22;51601;51.356;12.458;2023-07-28T07:53:39;24.60;93.90
65034;DHT22;51601;51.356;12.458;2023-07-28T07:57:58;24.60;94.60
65034;DHT22;51601;51.356;12.458;2023-07-28T08:02:16;25.20;97.10
65034;DHT22;51601;51.356;12.458;2023-07-28T08:06:35;26.00;95.40
65034;DHT22;51601;51.356;12.458;2023-07-28T08:10:52;26.30;90.10
65034;DHT22;51601;51.356;12.458;2023-07-28T08:15:10;26.10;78.80
65034;DHT22;51601;51.356;12.458;2023-07-28T08:19:28;25.80;74.70
65034;DHT22;51601;51.356;12.458;2023-07-28T08:23:47;25.60;82.30
65034;DHT22;51601;51.356;12.458;2023-07-28T08:28:04;25.70;82.90
65034;DHT22;51601;51.356;12.458;2023-07-28T08:32:22;25.60;80.00
65034;DHT22;51601;51.356;12.458;2023-07-28T08:36:40;25.40;79.10
65034;DHT22;51601;51.356;12.458;2023-07-28T08:40:59;25.20;78.60
65034;DHT22;51601;51.356;12.458;2023-07-28T08:45:17;25.10;76.80
65034;DHT22;51601;51.356;12.458;2023-07-28T08:49:37;25.00;80.30
65034;DHT22;51601;51.356;12.458;2023-07-28T08:53:55;25.20;83.30
65034;DHT22;51601;51.356;12.458;2023-07-28T08:58:16;25.40;82.40
65034;DHT22;51601;51.356;12.458;2023-07-28T09:02:35;25.70;81.30
65034;DHT22;51601;51.356;12.458;2023-07-28T09:06:53;26.20;81.80
65034;DHT22;51601;51.356;12.458;2023-07-28T09:11:11;27.00;76.30
65034;DHT22;51601;51.356;12.458;2023-07-28T09:15:35;27.70;72.50
65034;DHT22;51601;51.356;12.458;2023-07-28T09:19:54;28.00;70.80
65034;DHT22;51601;51.356;12.458;2023-07-28T09:24:14;28.30;69.20
65034;DHT22;51601;51.356;12.458;2023-07-28T09:28:39;28.30;65.30
65034;DHT22;51601;51.356;12.458;2023-07-28T09:32:58;28.00;64.80
65034;DHT22;51601;51.356;12.458;2023-07-28T09:37:18;27.70;65.10
65034;DHT22;51601;51.356;12.458;2023-07-28T09:41:36;27.50;65.10
65034;DHT22;51601;51.356;12.458;2023-07-28T09:45:54;27.30;63.60
65034;DHT22;51601;51.356;12.458;2023-07-28T09:50:15;27.40;63.00
65034;DHT22;51601;51.356;12.458;2023-07-28T09:54:37;27.40;60.30
65034;DHT22;51601;51.356;12.458;2023-07-28T09:58:58;27.00;60.30
65034;DHT22;51601;51.356;12.458;2023-07-28T10:03:16;26.50;61.00
65034;DHT22;51601;51.356;12.458;2023-07-28T10:07:36;26.10;62.70
65034;DHT22;51601;51.356;12.458;2023-07-28T10:11:54;26.20;64.00
65034;DHT22;51601;51.356;12.458;2023-07-28T10:16:12;26.30;62.90
65034;DHT22;51601;51.356;12.458;2023-07-28T10:20:32;26.80;63.80
65034;DHT22;51601;51.356;12.458;2023-07-28T10:24:54;27.70;62.00
65034;DHT22;51601;51.356;12.458;2023-07-28T10:29:14;28.50;59.30
65034;DHT22;51601;51.356;12.458;2023-07-28T10:33:33;28.80;56.70
65034;DHT22;51601;51.356;12.458;2023-07-28T10:37:55;28.90;56.40
65034;DHT22;51601;51.356;12.458;2023-07-28T10:42:14;28.90;55.90
65034;DHT22;51601;51.356;12.458;2023-07-28T10:46:34;29.00;55.20
65034;DHT22;51601;51.356;12.458;2023-07-28T10:50:55;29.00;55.00
65034;DHT22;51601;51.356;12.458;2023-07-28T10:55:14;29.20;54.60
65034;DHT22;51601;51.356;12.458;2023-07-28T10:59:35;29.50;54.60
65034;DHT22;51601;51.356;12.458;2023-07-28T11:03:52;30.00;53.80
65034;DHT22;51601;51.356;12.458;2023-07-28T11:08:10;30.40;51.60
65034;DHT22;51601;51.356;12.458;2023-07-28T11:12:29;30.40;50.50
65034;DHT22;51601;51.356;12.458;2023-07-28T11:16:48;29.90;50.20
65034;DHT22;51601;51.356;12.458;2023-07-28T11:21:08;29.30;51.20
65034;DHT22;51601;51.356;12.458;2023-07-28T11:25:27;28.70;52.80
65034;DHT22;51601;51.356;12.458;2023-07-28T11:29:44;28.40;54.10
65034;DHT22;51601;51.356;12.458;2023-07-28T11:34:12;28.30;54.10
65034;DHT22;51601;51.356;12.458;2023-07-28T11:38:32;28.20;54.70
65034;DHT22;51601;51.356;12.458;2023-07-28T11:42:53;28.20;55.30
65034;DHT22;51601;51.356;12.458;2023-07-28T11:47:17;28.20;55.40
65034;DHT22;51601;51.356;12.458;2023-07-28T11:51:39;28.30;55.50
65034;DHT22;51601;51.356;12.458;2023-07-28T11:56:00;28.40;55.60
65034;DHT22;51601;51.356;12.458;2023-07-28T12:00:18;28.60;55.80
65034;DHT22;51601;51.356;12.458;2023-07-28T12:04:42;28.90;54.60
65034;DHT22;51601;51.356;12.458;2023-07-28T12:09:08;29.10;53.30
65034;DHT22;51601;51.356;12.458;2023-07-28T12:13:27;28.90;52.80
65034;DHT22;51601;51.356;12.458;2023-07-28T12:18:05;28.60;53.00
65034;DHT22;51601;51.356;12.458;2023-07-28T12:22:28;28.10;53.80
65034;DHT22;51601;51.356;12.458;2023-07-28T12:26:48;27.80;54.60
65034;DHT22;51601;51.356;12.458;2023-07-28T12:31:07;27.50;55.30
65034;DHT22;51601;51.356;12.458;2023-07-28T12:35:26;27.40;55.70
65034;DHT22;51601;51.356;12.458;2023-07-28T12:39:49;27.20;55.80
65034;DHT22;51601;51.356;12.458;2023-07-28T12:44:21;27.10;56.40
65034;DHT22;51601;51.356;12.458;2023-07-28T12:48:59;27.00;56.70
65034;DHT22;51601;51.356;12.458;2023-07-28T12:53:17;27.00;56.50
65034;DHT22;51601;51.356;12.458;2023-07-28T12:57:39;27.10;56.50
65034;DHT22;51601;51.356;12.458;2023-07-28T13:01:58;27.10;56.30
65034;DHT22;51601;51.356;12.458;2023-07-28T13:06:19;27.00;56.30
65034;DHT22;51601;51.356;12.458;2023-07-28T13:10:36;26.90;56.70
65034;DHT22;51601;51.356;12.458;2023-07-28T13:14:57;27.00;56.70
65034;DHT22;51601;51.356;12.458;2023-07-28T13:19:16;27.10;56.60
65034;DHT22;51601;51.356;12.458;2023-07-28T13:23:34;27.10;56.00
65034;DHT22;51601;51.356;12.458;2023-07-28T13:27:51;27.10;56.00
65034;DHT22;51601;51.356;12.458;2023-07-28T13:32:16;27.00;55.90
65034;DHT22;51601;51.356;12.458;2023-07-28T13:36:35;27.00;55.90
65034;DHT22;51601;51.356;12.458;2023-07-28T13:40:51;26.90;56.20
65034;DHT22;51601;51.356;12.458;2023-07-28T13:45:10;26.90;55.40
65034;DHT22;51601;51.356;12.458;2023-07-28T13:49:27;26.80;55.40
65034;DHT22;51601;51.356;12.458;2023-07-28T13:53:47;26.70;55.80
65034;DHT22;51601;51.356;12.458;2023-07-28T13:58:10;26.60;55.90
65034;DHT22;51601;51.356;12.458;2023-07-28T14:02:28;26.50;56.00
65034;DHT22;51601;51.356;12.458;2023-07-28T14:06:46;26.50;55.90
65034;DHT22;51601;51.356;12.458;2023-07-28T14:11:05;26.50;55.30
65034;DHT22;51601;51.356;12.458;2023-07-28T14:15:22;26.60;55.70
65034;DHT22;51601;51.356;12.458;2023-07-28T14:19:40;26.60;54.60
65034;DHT22;51601;51.356;12.458;2023-07-28T14:23:58;26.60;54.30
65034;DHT22;51601;51.356;12.458;2023-07-28T14:28:18;26.70;54.30
65034;DHT22;51601;51.356;12.458;2023-07-28T14:32:37;26.70;54.20
65034;DHT22;51601;51.356;12.458;2023-07-28T14:36:55;26.80;53.90
65034;DHT22;51601;51.356;12.458;2023-07-28T14:41:13;26.90;53.90
65034;DHT22;51601;51.356;12.458;2023-07-28T14:45:33;26.90;53.50
65034;DHT22;51601;51.356;12.458;2023-07-28T14:49:52;27.00;53.30
65034;DHT22;51601;51.356;12.458;2023-07-28T14:54:10;27.00;53.00
65034;DHT22;51601;51.356;12.458;2023-07-28T14:58:29;27.00;53.20
65034;DHT22;51601;51.356;12.458;2023-07-28T15:02:48;27.00;53.30
65034;DHT22;51601;51.356;12.458;2023-07-28T15:07:05;27.00;53.10
65034;DHT22;51601;51.356;12.458;2023-07-28T15:11:24;27.00;53.40
65034;DHT22;51601;51.356;12.458;2023-07-28T15:15:44;27.00;53.00
65034;DHT22;51601;51.356;12.458;2023-07-28T15:20:04;27.10;52.70
65034;DHT22;51601;51.356;12.458;2023-07-28T15:24:23;27.10;52.30
65034;DHT22;51601;51.356;12.458;2023-07-28T15:28:41;27.10;52.60
65034;DHT22;51601;51.356;12.458;2023-07-28T15:32:59;27.20;51.80
65034;DHT22;51601;51.356;12.458;2023-07-28T15:37:19;27.20;52.00
65034;DHT22;51601;51.356;12.458;2023-07-28T15:41:35;27.20;52.00
65034;DHT22;51601;51.356;12.458;2023-07-28T15:45:53;27.20;52.40
65034;DHT22;51601;51.356;12.458;2023-07-28T15:50:11;27.30;52.70
65034;DHT22;51601;51.356;12.458;2023-07-28T15:54:31;27.30;52.80
65034;DHT22;51601;51.356;12.458;2023-07-28T15:58:47;27.20;53.00
65034;DHT22;51601;51.356;12.458;2023-07-28T16:03:06;27.20;53.30
65034;DHT22;51601;51.356;12.458;2023-07-28T16:07:23;27.10;53.90
65034;DHT22;51601;51.356;12.458;2023-07-28T16:11:43;27.10;54.70
65034;DHT22;51601;51.356;12.458;2023-07-28T16:16:00;27.10;55.20
65034;DHT22;51601;51.356;12.458;2023-07-28T16:20:18;27.10;55.60
65034;DHT22;51601;51.356;12.458;2023-07-28T16:24:36;27.00;55.50
65034;DHT22;51601;51.356;12.458;2023-07-28T16:28:55;26.90;55.40
65034;DHT22;51601;51.356;12.458;2023-07-28T16:33:12;26.90;55.20
65034;DHT22;51601;51.356;12.458;2023-07-28T16:37:30;26.80;55.10
65034;DHT22;51601;51.356;12.458;2023-07-28T16:41:48;26.70;55.00
65034;DHT22;51601;51.356;12.458;2023-07-28T16:46:07;26.70;54.40
65034;DHT22;51601;51.356;12.458;2023-07-28T16:50:27;26.60;54.40
65034;DHT22;51601;51.356;12.458;2023-07-28T16:54:45;26.60;55.60
65034;DHT22;51601;51.356;12.458;2023-07-28T16:59:03;26.50;56.30
65034;DHT22;51601;51.356;12.458;2023-07-28T17:03:24;26.40;56.60
65034;DHT22;51601;51.356;12.458;2023-07-28T17:07:42;26.40;57.00
65034;DHT22;51601;51.356;12.458;2023-07-28T17:12:00;26.40;57.20
65034;DHT22;51601;51.356;12.458;2023-07-28T17:16:19;26.30;57.50
65034;DHT22;51601;51.356;12.458;2023-07-28T17:20:38;26.10;57.80
65034;DHT22;51601;51.356;12.458;2023-07-28T17:24:58;26.00;58.40
65034;DHT22;51601;51.356;12.458;2023-07-28T17:29:16;25.90;59.10
65034;DHT22;51601;51.356;12.458;2023-07-28T17:33:34;25.80;59.50
65034;DHT22;51601;51.356;12.458;2023-07-28T17:37:53;25.70;59.30
65034;DHT22;51601;51.356;12.458;2023-07-28T17:42:10;25.70;59.00
65034;DHT22;51601;51.356;12.458;2023-07-28T17:46:28;25.60;58.90
65034;DHT22;51601;51.356;12.458;2023-07-28T17:50:46;25.50;58.80
65034;DHT22;51601;51.356;12.458;2023-07-28T17:55:07;25.40;59.00
65034;DHT22;51601;51.356;12.458;2023-07-28T17:59:25;25.30;59.40
65034;DHT22;51601;51.356;12.458;2023-07-28T18:03:43;25.20;59.80
65034;DHT22;51601;51.356;12.458;2023-07-28T18:08:01;25.10;60.20
65034;DHT22;51601;51.356;12.458;2023-07-28T18:12:28;25.00;60.50
65034;DHT22;51601;51.356;12.458;2023-07-28T18:16:47;24.90;60.60
65034;DHT22;51601;51.356;12.458;2023-07-28T18:21:05;24.90;60.90
65034;DHT22;51601;51.356;12.458;2023-07-28T18:25:23;24.80;61.10
65034;DHT22;51601;51.356;12.458;2023-07-28T18:29:42;24.70;61.40
65034;DHT22;51601;51.356;12.458;2023-07-28T18:33:59;24.70;61.70
65034;DHT22;51601;51.356;12.458;2023-07-28T18:38:17;24.60;62.00
65034;DHT22;51601;51.356;12.458;2023-07-28T18:42:35;24.50;62.20
65034;DHT22;51601;51.356;12.458;2023-07-28T18:46:54;24.40;62.60
65034;DHT22;51601;51.356;12.458;2023-07-28T18:51:11;24.20;63.00
65034;DHT22;51601;51.356;12.458;2023-07-28T18:55:29;24.10;63.40
65034;DHT22;51601;51.356;12.458;2023-07-28T18:59:47;24.00;63.80
65034;DHT22;51601;51.356;12.458;2023-07-28T19:04:07;23.90;64.30
65034;DHT22;51601;51.356;12.458;2023-07-28T19:08:23;23.80;64.90
65034;DHT22;51601;51.356;12.458;2023-07-28T19:12:41;23.70;65.70
65034;DHT22;51601;51.356;12.458;2023-07-28T19:16:59;23.60;66.30
65034;DHT22;51601;51.356;12.458;2023-07-28T19:21:19;23.60;66.80
65034;DHT22;51601;51.356;12.458;2023-07-28T19:25:36;23.50;67.20
65034;DHT22;51601;51.356;12.458;2023-07-28T19:29:54;23.40;67.40
65034;DHT22;51601;51.356;12.458;2023-07-28T19:34:12;23.30;68.00
65034;DHT22;51601;51.356;12.458;2023-07-28T19:38:31;23.20;68.50
65034;DHT22;51601;51.356;12.458;2023-07-28T19:42:48;23.10;69.20
65034;DHT22;51601;51.356;12.458;2023-07-28T19:47:09;23.00;69.90
65034;DHT22;51601;51.356;12.458;2023-07-28T19:51:27;22.90;70.70
65034;DHT22;51601;51.356;12.458;2023-07-28T19:55:46;22.80;72.50
65034;DHT22;51601;51.356;12.458;2023-07-28T20:00:04;22.70;73.00
65034;DHT22;51601;51.356;12.458;2023-07-28T20:04:24;22.60;74.10
65034;DHT22;51601;51.356;12.458;2023-07-28T20:08:42;22.60;75.20
65034;DHT22;51601;51.356;12.458;2023-07-28T20:13:02;22.50;76.00
65034;DHT22;51601;51.356;12.458;2023-07-28T20:17:18;22.50;76.50
65034;DHT22;51601;51.356;12.458;2023-07-28T20:21:36;22.50;77.00
65034;DHT22;51601;51.356;12.458;2023-07-28T20:25:54;22.40;77.40
65034;DHT22;51601;51.356;12.458;2023-07-28T20:30:14;22.40;78.10
65034;DHT22;51601;51.356;12.458;2023-07-28T20:34:37;22.40;78.60
65034;DHT22;51601;51.356;12.458;2023-07-28T20:38:55;22.30;79.30
65034;DHT22;51601;51.356;12.458;2023-07-28T20:43:13;22.30;80.30
65034;DHT22;51601;51.356;12.458;2023-07-28T20:47:32;22.30;81.50
65034;DHT22;51601;51.356;12.458;2023-07-28T20:51:49;22.30;82.40
65034;DHT22;51601;51.356;12.458;2023-07-28T20:56:07;22.30;82.60
65034;DHT22;51601;51.356;12.458;2023-07-28T21:00:28;22.30;82.90
65034;DHT22;51601;51.356;12.458;2023-07-28T21:04:47;22.30;82.90
65034;DHT22;51601;51.356;12.458;2023-07-28T21:09:04;22.30;83.20
65034;DHT22;51601;51.356;12.458;2023-07-28T21:13:23;22.30;83.40
65034;DHT22;51601;51.356;12.458;2023-07-28T21:17:40;22.20;84.00
65034;DHT22;51601;51.356;12.458;2023-07-28T21:22:00;22.10;85.10
65034;DHT22;51601;51.356;12.458;2023-07-28T21:26:20;22.10;86.20
65034;DHT22;51601;51.356;12.458;2023-07-28T21:30:38;22.00;87.40
65034;DHT22;51601;51.356;12.458;2023-07-28T21:34:56;22.00;88.70
65034;DHT22;51601;51.356;12.458;2023-07-28T21:39:15;21.90;89.90
65034;DHT22;51601;51.356;12.458;2023-07-28T21:43:32;21.90;90.50
65034;DHT22;51601;51.356;12.458;2023-07-28T21:47:50;21.80;91.00
65034;DHT22;51601;51.356;12.458;2023-07-28T21:52:08;21.80;91.50
65034;DHT22;51601;51.356;12.458;2023-07-28T21:56:27;21.80;91.70
65034;DHT22;51601;51.356;12.458;2023-07-28T22:00:44;21.80;91.90
65034;DHT22;51601;51.356;12.458;2023-07-28T22:05:02;21.70;92.20
65034;DHT22;51601;51.356;12.458;2023-07-28T22:09:20;21.60;92.40
65034;DHT22;51601;51.356;12.458;2023-07-28T22:13:40;21.60;92.80
65034;DHT22;51601;51.356;12.458;2023-07-28T22:17:59;21.60;93.10
65034;DHT22;51601;51.356;12.458;2023-07-28T22:22:17;21.50;93.30
65034;DHT22;51601;51.356;12.458;2023-07-28T22:26:35;21.40;93.60
65034;DHT22;51601;51.356;12.458;2023-07-28T22:30:55;21.30;93.80
65034;DHT22;51601;51.356;12.458;2023-07-28T22:35:11;21.30;94.20
65034;DHT22;51601;51.356;12.458;2023-07-28T22:39:29;21.10;94.60
65034;DHT22;51601;51.356;12.458;2023-07-28T22:43:48;21.00;95.00
65034;DHT22;51601;51.356;12.458;2023-07-28T22:48:07;20.90;95.40
65034;DHT22;51601;51.356;12.458;2023-07-28T22:52:24;20.80;95.90
65034;DHT22;51601;51.356;12.458;2023-07-28T22:56:42;20.80;96.40
65034;DHT22;51601;51.356;12.458;2023-07-28T23:01:00;20.70;96.90
65034;DHT22;51601;51.356;12.458;2023-07-28T23:05:19;20.60;97.10
65034;DHT22;51601;51.356;12.458;2023-07-28T23:09:36;20.50;97.50
65034;DHT22;51601;51.356;12.458;2023-07-28T23:13:54;20.40;97.90
65034;DHT22;51601;51.356;12.458;2023-07-28T23:18:12;20.30;98.20
65034;DHT22;51601;51.356;12.458;2023-07-28T23:22:31;20.30;98.60
65034;DHT22;51601;51.356;12.458;2023-07-28T23:26:51;20.20;98.90
65034;DHT22;51601;51.356;12.458;2023-07-28T23:31:10;20.10;99.10
65034;DHT22;51601;51.356;12.458;2023-07-28T23:35:27;20.10;99.40
65034;DHT22;51601;51.356;12.458;2023-07-28T23:39:48;20.00;99.70
65034;DHT22;51601;51.356;12.458;2023-07-28T23:44:07;20.00;99.90
65034;DHT22;51601;51.356;12.458;2023-07-28T23:48:25;19.90;99.90
65034;DHT22;51601;51.356;12.458;2023-07-28T23:52:43;19.90;99.90
65034;DHT22;51601;51.356;12.458;2023-07-28T23:57:05;19.90;99.90
